sensor_id;sensor_type;location;lat;lon;timestamp;pressure;altitude;pressure_sealevel;temperature;humidity
44079;BME280;29744;49.078;12.878;2023-05-08T00:01:24;96758.56;;;15.65;40.32
44079;BME280;29744;49.078;12.878;2023-05-08T00:06:24;96751.56;;;15.64;40.49
44079;BME280;29744;49.078;12.878;2023-05-08T00:11:26;96751.91;;;15.62;40.68
44079;BME280;29744;49.078;12.878;2023-05-08T00:16:26;96755.72;;;15.61;40.73
44079;BME280;29744;49.078;12.878;2023-05-08T00:21:27;96764.63;;;15.62;40.19
44079;BME280;29744;49.078;12.878;2023-05-08T00:26:27;96758.75;;;15.60;40.43
44079;BME280;29744;49.078;12.878;2023-05-08T00:31:27;96768.44;;;15.61;40.42
44079;BME280;29744;49.078;12.878;2023-05-08T00:36:28;96768.44;;;15.61;40.56
44079;BME280;29744;49.078;12.878;2023-05-08T00:41:28;96769.88;;;15.58;40.48
44079;BME280;29744;49.078;12.878;2023-05-08T00:46:29;96776.88;;;15.59;40.57
44079;BME280;29744;49.078;12.878;2023-05-08T00:51:29;96776.88;;;15.59;40.31
44079;BME280;29744;49.078;12.878;2023-05-08T00:56:31;96774.50;;;15.58;40.38
44079;BME280;29744;49.078;12.878;2023-05-08T01:01:33;96779.91;;;15.58;40.16
44079;BME280;29744;49.078;12.878;2023-05-08T01:06:34;96792.28;;;15.59;40.37
44079;BME280;29744;49.078;12.878;2023-05-08T01:12:05;96792.94;;;15.56;40.63
44079;BME280;29744;49.078;12.878;2023-05-08T01:17:11;96801.53;;;15.58;40.23
44079;BME280;29744;49.078;12.878;2023-05-08T01:27:46;96800.25;;;15.55;40.37
44079;BME280;29744;49.078;12.878;2023-05-08T01:33:01;96806.78;;;15.54;40.29
44079;BME280;29744;49.078;12.878;2023-05-08T01:38:09;96807.56;;;15.55;40.60
44079;BME280;29744;49.078;12.878;2023-05-08T01:43:34;96823.31;;;15.53;40.39
44079;BME280;29744;49.078;12.878;2023-05-08T01:48:43;96826.50;;;15.55;40.43
44079;BME280;29744;49.078;12.878;2023-05-08T01:53:55;96824.91;;;15.54;40.39
44079;BME280;29744;49.078;12.878;2023-05-08T01:58:58;96826.81;;;15.53;40.25
44079;BME280;29744;49.078;12.878;2023-05-08T02:03:59;96831.09;;;15.54;40.56
44079;BME280;29744;49.078;12.878;2023-05-08T02:09:01;96834.13;;;15.53;40.20
44079;BME280;29744;49.078;12.878;2023-05-08T02:14:03;96837.63;;;15.53;40.33
44079;BME280;29744;49.078;12.878;2023-05-08T02:19:06;96836.84;;;15.53;40.67
44079;BME280;29744;49.078;12.878;2023-05-08T02:24:08;96836.84;;;15.53;40.46
44079;BME280;29744;49.078;12.878;2023-05-08T02:29:09;96839.53;;;15.53;40.24
44079;BME280;29744;49.078;12.878;2023-05-08T02:35:49;96852.56;;;15.51;40.25
44079;BME280;29744;49.078;12.878;2023-05-08T02:40:54;96854.16;;;15.52;40.45
44079;BME280;29744;49.078;12.878;2023-05-08T02:46:08;96850.66;;;15.51;40.06
44079;BME280;29744;49.078;12.878;2023-05-08T02:51:28;96851.00;;;15.50;40.18
44079;BME280;29744;49.078;12.878;2023-05-08T02:57:26;96853.84;;;15.44;40.34
44079;BME280;29744;49.078;12.878;2023-05-08T03:02:48;96858.16;;;15.45;40.41
44079;BME280;29744;49.078;12.878;2023-05-08T03:07:52;96851.31;;;15.48;40.41
44079;BME280;29744;49.078;12.878;2023-05-08T03:12:54;96858.63;;;15.48;40.26
44079;BME280;29744;49.078;12.878;2023-05-08T03:17:59;96862.91;;;15.49;40.57
44079;BME280;29744;49.078;12.878;2023-05-08T03:23:02;96858.63;;;15.48;40.21
44079;BME280;29744;49.078;12.878;2023-05-08T03:28:04;96855.13;;;15.47;40.27
44079;BME280;29744;49.078;12.878;2023-05-08T03:33:06;96862.44;;;15.46;40.54
44079;BME280;29744;49.078;12.878;2023-05-08T03:38:07;96860.53;;;15.47;40.29
44079;BME280;29744;49.078;12.878;2023-05-08T03:43:08;96862.44;;;15.46;40.28
44079;BME280;29744;49.078;12.878;2023-05-08T03:48:09;96865.13;;;15.46;40.09
44079;BME280;29744;49.078;12.878;2023-05-08T03:53:10;96865.13;;;15.46;40.00
44079;BME280;29744;49.078;12.878;2023-05-08T04:03:35;96863.88;;;15.44;40.18
44079;BME280;29744;49.078;12.878;2023-05-08T04:08:43;96870.88;;;15.45;39.88
44079;BME280;29744;49.078;12.878;2023-05-08T04:13:53;96874.34;;;15.45;40.11
44079;BME280;29744;49.078;12.878;2023-05-08T04:19:08;96878.97;;;15.45;40.30
44079;BME280;29744;49.078;12.878;2023-05-08T04:24:12;96885.16;;;15.45;40.42
44079;BME280;29744;49.078;12.878;2023-05-08T04:29:13;96888.66;;;15.46;40.24
44079;BME280;29744;49.078;12.878;2023-05-08T04:34:16;96892.16;;;15.46;40.16
44079;BME280;29744;49.078;12.878;2023-05-08T04:39:16;96902.97;;;15.46;39.96
44079;BME280;29744;49.078;12.878;2023-05-08T04:44:17;96903.78;;;15.47;39.92
44079;BME280;29744;49.078;12.878;2023-05-08T04:49:17;96911.88;;;15.47;40.27
44079;BME280;29744;49.078;12.878;2023-05-08T04:54:17;96913.47;;;15.48;39.94
44079;BME280;29744;49.078;12.878;2023-05-08T04:59:18;96923.16;;;15.49;40.15
44079;BME280;29744;49.078;12.878;2023-05-08T05:04:18;96923.16;;;15.49;40.09
44079;BME280;29744;49.078;12.878;2023-05-08T05:09:18;96927.00;;;15.48;40.04
44079;BME280;29744;49.078;12.878;2023-05-08T05:14:18;96923.97;;;15.50;39.91
44079;BME280;29744;49.078;12.878;2023-05-08T05:19:19;96930.97;;;15.51;39.85
44079;BME280;29744;49.078;12.878;2023-05-08T05:24:19;96929.06;;;15.51;40.29
44079;BME280;29744;49.078;12.878;2023-05-08T05:29:20;96932.56;;;15.52;40.40
44079;BME280;29744;49.078;12.878;2023-05-08T05:34:20;96934.47;;;15.51;40.18
44079;BME280;29744;49.078;12.878;2023-05-08T05:39:20;96929.84;;;15.52;40.40
44079;BME280;29744;49.078;12.878;2023-05-08T05:44:21;96937.66;;;15.53;40.05
44079;BME280;29744;49.078;12.878;2023-05-08T05:49:21;96941.13;;;15.54;40.30
44079;BME280;29744;49.078;12.878;2023-05-08T05:54:21;96954.34;;;15.55;39.99
44079;BME280;29744;49.078;12.878;2023-05-08T05:59:21;96947.81;;;15.56;40.06
44079;BME280;29744;49.078;12.878;2023-05-08T06:04:22;96959.44;;;15.57;40.25
44079;BME280;29744;49.078;12.878;2023-05-08T06:09:22;96962.13;;;15.57;40.28
44079;BME280;29744;49.078;12.878;2023-05-08T06:14:22;96960.53;;;15.56;40.13
44079;BME280;29744;49.078;12.878;2023-05-08T06:19:23;96970.25;;;15.57;39.73
44079;BME280;29744;49.078;12.878;2023-05-08T06:24:23;96967.53;;;15.57;39.90
44079;BME280;29744;49.078;12.878;2023-05-08T06:29:23;96974.53;;;15.58;40.25
44079;BME280;29744;49.078;12.878;2023-05-08T06:34:24;96973.44;;;15.59;40.05
44079;BME280;29744;49.078;12.878;2023-05-08T06:39:24;96972.31;;;15.60;40.01
44079;BME280;29744;49.078;12.878;2023-05-08T06:44:24;96968.50;;;15.61;39.86
44079;BME280;29744;49.078;12.878;2023-05-08T06:49:25;96969.28;;;15.61;40.37
44079;BME280;29744;49.078;12.878;2023-05-08T06:54:25;96977.09;;;15.63;39.79
44079;BME280;29744;49.078;12.878;2023-05-08T06:59:25;96980.25;;;15.65;39.87
44079;BME280;29744;49.078;12.878;2023-05-08T07:04:25;96975.97;;;15.64;39.87
44079;BME280;29744;49.078;12.878;2023-05-08T07:09:26;96972.16;;;15.65;39.81
44079;BME280;29744;49.078;12.878;2023-05-08T07:14:26;96975.66;;;15.65;40.08
44079;BME280;29744;49.078;12.878;2023-05-08T07:19:27;96977.25;;;15.66;39.53
44079;BME280;29744;49.078;12.878;2023-05-08T07:24:28;96973.44;;;15.67;39.87
44079;BME280;29744;49.078;12.878;2023-05-08T07:29:28;96963.41;;;15.68;39.76
44079;BME280;29744;49.078;12.878;2023-05-08T07:34:29;96961.50;;;15.68;39.80
44079;BME280;29744;49.078;12.878;2023-05-08T07:39:32;96965.00;;;15.69;39.73
44079;BME280;29744;49.078;12.878;2023-05-08T07:44:32;96961.97;;;15.70;39.45
44079;BME280;29744;49.078;12.878;2023-05-08T07:49:32;96968.19;;;15.71;39.71
44079;BME280;29744;49.078;12.878;2023-05-08T07:54:32;96963.56;;;15.71;39.69
44079;BME280;29744;49.078;12.878;2023-05-08T07:59:33;96963.56;;;15.71;39.67
44079;BME280;29744;49.078;12.878;2023-05-08T08:04:33;96962.13;;;15.74;39.61
44079;BME280;29744;49.078;12.878;2023-05-08T08:09:33;96953.53;;;15.72;39.69
44079;BME280;29744;49.078;12.878;2023-05-08T08:14:34;96955.13;;;15.73;39.58
44079;BME280;29744;49.078;12.878;2023-05-08T08:19:34;96950.22;;;15.75;39.73
44079;BME280;29744;49.078;12.878;2023-05-08T08:24:34;96947.50;;;15.75;39.33
44079;BME280;29744;49.078;12.878;2023-05-08T08:29:35;96947.50;;;15.75;39.38
44079;BME280;29744;49.078;12.878;2023-05-08T08:34:35;96946.38;;;15.76;39.68
44079;BME280;29744;49.078;12.878;2023-05-08T08:39:35;96943.69;;;15.76;39.46
44079;BME280;29744;49.078;12.878;2023-05-08T08:44:36;96946.38;;;15.76;39.73
44079;BME280;29744;49.078;12.878;2023-05-08T08:49:41;96938.28;;;15.76;39.35
44079;BME280;29744;49.078;12.878;2023-05-08T08:54:43;96943.69;;;15.76;39.35
44079;BME280;29744;49.078;12.878;2023-05-08T08:59:46;96930.16;;;15.76;39.40
44079;BME280;29744;49.078;12.878;2023-05-08T09:04:48;96925.53;;;15.76;39.58
44079;BME280;29744;49.078;12.878;2023-05-08T09:09:49;96920.47;;;15.75;39.34
44079;BME280;29744;49.078;12.878;2023-05-08T09:14:49;96927.47;;;15.76;39.60
44079;BME280;29744;49.078;12.878;2023-05-08T09:19:50;96922.03;;;15.76;39.73
44079;BME280;29744;49.078;12.878;2023-05-08T09:24:57;96922.03;;;15.76;39.87
44079;BME280;29744;49.078;12.878;2023-05-08T09:29:58;96923.97;;;15.75;39.68
44079;BME280;29744;49.078;12.878;2023-05-08T09:35:01;96930.16;;;15.76;39.34
44079;BME280;29744;49.078;12.878;2023-05-08T09:40:19;96924.28;;;15.74;39.46
44079;BME280;29744;49.078;12.878;2023-05-08T09:45:30;96918.88;;;15.74;39.34
44079;BME280;29744;49.078;12.878;2023-05-08T09:50:31;96915.06;;;15.75;39.61
44079;BME280;29744;49.078;12.878;2023-05-08T09:55:45;96913.47;;;15.74;39.90
44079;BME280;29744;49.078;12.878;2023-05-08T10:00:46;96915.06;;;15.75;39.62
44079;BME280;29744;49.078;12.878;2023-05-08T10:05:46;96916.97;;;15.74;39.57
44079;BME280;29744;49.078;12.878;2023-05-08T10:10:47;96921.25;;;15.75;39.47
44079;BME280;29744;49.078;12.878;2023-05-08T10:15:50;96913.94;;;15.76;39.43
44079;BME280;29744;49.078;12.878;2023-05-08T10:20:54;96911.22;;;15.76;39.40
44079;BME280;29744;49.078;12.878;2023-05-08T10:25:57;96914.72;;;15.76;39.88
44079;BME280;29744;49.078;12.878;2023-05-08T10:31:03;96913.16;;;15.75;39.74
44079;BME280;29744;49.078;12.878;2023-05-08T10:36:07;96905.50;;;15.77;39.66
44079;BME280;29744;49.078;12.878;2023-05-08T10:41:12;96903.91;;;15.76;39.53
44079;BME280;29744;49.078;12.878;2023-05-08T10:46:29;96898.81;;;15.75;39.80
44079;BME280;29744;49.078;12.878;2023-05-08T10:57:06;96888.81;;;15.75;39.74
44079;BME280;29744;49.078;12.878;2023-05-08T11:02:07;96890.88;;;15.78;39.47
44079;BME280;29744;49.078;12.878;2023-05-08T11:07:07;96883.56;;;15.79;39.93
44079;BME280;29744;49.078;12.878;2023-05-08T11:17:22;96881.66;;;15.80;39.67
44079;BME280;29744;49.078;12.878;2023-05-08T11:22:28;96884.84;;;15.82;39.64
44079;BME280;29744;49.078;12.878;2023-05-08T11:27:35;96867.50;;;15.83;39.77
44079;BME280;29744;49.078;12.878;2023-05-08T11:33:10;96871.00;;;15.83;39.33
44079;BME280;29744;49.078;12.878;2023-05-08T11:38:26;96874.50;;;15.84;39.54
44079;BME280;29744;49.078;12.878;2023-05-08T11:48:34;96857.63;;;15.87;39.66
44079;BME280;29744;49.078;12.878;2023-05-08T11:53:35;96860.34;;;15.87;39.24
44079;BME280;29744;49.078;12.878;2023-05-08T11:58:36;96865.09;;;15.90;39.45
44079;BME280;29744;49.078;12.878;2023-05-08T12:03:36;96865.91;;;15.90;39.56
44079;BME280;29744;49.078;12.878;2023-05-08T12:08:37;96866.38;;;15.92;39.47
44079;BME280;29744;49.078;12.878;2023-05-08T12:13:38;96873.38;;;15.93;39.49
44079;BME280;29744;49.078;12.878;2023-05-08T12:18:38;96883.88;;;15.95;39.83
44079;BME280;29744;49.078;12.878;2023-05-08T12:23:38;96879.25;;;15.95;39.68
44079;BME280;29744;49.078;12.878;2023-05-08T12:28:39;96878.47;;;15.95;39.62
44079;BME280;29744;49.078;12.878;2023-05-08T12:33:40;96886.25;;;15.96;39.79
44079;BME280;29744;49.078;12.878;2023-05-08T12:38:41;96882.75;;;15.96;39.83
44079;BME280;29744;49.078;12.878;2023-05-08T12:43:45;96892.78;;;15.95;39.60
44079;BME280;29744;49.078;12.878;2023-05-08T12:48:45;96905.19;;;15.96;39.49
44079;BME280;29744;49.078;12.878;2023-05-08T12:53:47;96907.09;;;15.96;39.36
44079;BME280;29744;49.078;12.878;2023-05-08T12:58:49;96909.00;;;15.95;39.70
44079;BME280;29744;49.078;12.878;2023-05-08T13:03:51;96911.72;;;15.95;39.21
44079;BME280;29744;49.078;12.878;2023-05-08T13:08:53;96913.31;;;15.96;39.71
44079;BME280;29744;49.078;12.878;2023-05-08T13:13:56;96914.41;;;15.95;39.89
44079;BME280;29744;49.078;12.878;2023-05-08T13:18:56;96915.22;;;15.96;39.49
44079;BME280;29744;49.078;12.878;2023-05-08T13:23:57;96908.22;;;15.95;39.49
44079;BME280;29744;49.078;12.878;2023-05-08T13:28:57;96910.13;;;15.94;39.32
44079;BME280;29744;49.078;12.878;2023-05-08T13:33:57;96904.72;;;15.94;39.58
44079;BME280;29744;49.078;12.878;2023-05-08T13:38:57;96907.41;;;15.94;39.75
44079;BME280;29744;49.078;12.878;2023-05-08T13:43:58;96895.81;;;15.94;39.82
44079;BME280;29744;49.078;12.878;2023-05-08T13:48:58;96894.69;;;15.95;39.64
44079;BME280;29744;49.078;12.878;2023-05-08T13:53:58;96903.59;;;15.95;39.25
44079;BME280;29744;49.078;12.878;2023-05-08T13:58:58;96902.81;;;15.95;39.86
44079;BME280;29744;49.078;12.878;2023-05-08T14:03:59;96891.97;;;15.95;39.83
44079;BME280;29744;49.078;12.878;2023-05-08T14:08:59;96890.06;;;15.95;39.49
44079;BME280;29744;49.078;12.878;2023-05-08T14:13:59;96894.69;;;15.95;39.57
44079;BME280;29744;49.078;12.878;2023-05-08T14:19:00;96893.09;;;15.94;39.66
44079;BME280;29744;49.078;12.878;2023-05-08T14:24:00;96886.09;;;15.93;39.76
44079;BME280;29744;49.078;12.878;2023-05-08T14:29:00;96886.91;;;15.93;39.66
44079;BME280;29744;49.078;12.878;2023-05-08T14:34:00;96881.47;;;15.93;39.72
44079;BME280;29744;49.078;12.878;2023-05-08T14:39:01;96878.31;;;15.91;39.55
44079;BME280;29744;49.078;12.878;2023-05-08T14:44:01;96886.41;;;15.91;39.78
44079;BME280;29744;49.078;12.878;2023-05-08T14:49:02;96884.50;;;15.92;39.60
44079;BME280;29744;49.078;12.878;2023-05-08T14:54:02;96889.91;;;15.92;39.66
44079;BME280;29744;49.078;12.878;2023-05-08T14:59:03;96883.72;;;15.91;39.66
44079;BME280;29744;49.078;12.878;2023-05-08T15:04:03;96884.50;;;15.92;39.71
44079;BME280;29744;49.078;12.878;2023-05-08T15:09:03;96883.72;;;15.91;39.72
44079;BME280;29744;49.078;12.878;2023-05-08T15:14:04;96881.81;;;15.92;39.64
44079;BME280;29744;49.078;12.878;2023-05-08T15:19:05;96881.00;;;15.91;39.67
44079;BME280;29744;49.078;12.878;2023-05-08T15:24:05;96872.09;;;15.91;39.72
44079;BME280;29744;49.078;12.878;2023-05-08T15:29:06;96868.59;;;15.90;39.65
44079;BME280;29744;49.078;12.878;2023-05-08T15:34:06;96874.81;;;15.91;39.73
44079;BME280;29744;49.078;12.878;2023-05-08T15:39:06;96872.91;;;15.91;39.48
44079;BME280;29744;49.078;12.878;2023-05-08T15:44:06;96875.13;;;15.89;39.53
44079;BME280;29744;49.078;12.878;2023-05-08T15:49:07;96872.44;;;15.89;39.68
44079;BME280;29744;49.078;12.878;2023-05-08T15:54:07;96870.50;;;15.90;39.83
44079;BME280;29744;49.078;12.878;2023-05-08T15:59:07;96868.13;;;15.88;39.79
44079;BME280;29744;49.078;12.878;2023-05-08T16:04:08;96860.03;;;15.88;39.48
44079;BME280;29744;49.078;12.878;2023-05-08T16:09:08;96856.19;;;15.89;39.93
44079;BME280;29744;49.078;12.878;2023-05-08T16:14:08;96860.03;;;15.88;39.50
44079;BME280;29744;49.078;12.878;2023-05-08T16:19:09;96849.19;;;15.88;40.02
44079;BME280;29744;49.078;12.878;2023-05-08T16:24:09;96848.41;;;15.88;40.26
44079;BME280;29744;49.078;12.878;2023-05-08T16:29:09;96851.44;;;15.86;39.80
44079;BME280;29744;49.078;12.878;2023-05-08T16:34:09;96858.44;;;15.87;40.22
44079;BME280;29744;49.078;12.878;2023-05-08T16:39:10;96855.72;;;15.87;39.72
44079;BME280;29744;49.078;12.878;2023-05-08T16:44:11;96845.22;;;15.86;40.09
44079;BME280;29744;49.078;12.878;2023-05-08T16:49:12;96850.63;;;15.86;40.17
44079;BME280;29744;49.078;12.878;2023-05-08T16:54:12;96856.38;;;15.84;40.00
44079;BME280;29744;49.078;12.878;2023-05-08T16:59:12;96853.66;;;15.84;39.83
44079;BME280;29744;49.078;12.878;2023-05-08T17:04:13;96848.25;;;15.84;39.89
44079;BME280;29744;49.078;12.878;2023-05-08T17:09:13;96860.19;;;15.83;39.68
44079;BME280;29744;49.078;12.878;2023-05-08T17:14:13;96861.31;;;15.82;39.89
44079;BME280;29744;49.078;12.878;2023-05-08T17:19:14;96864.00;;;15.82;40.32
44079;BME280;29744;49.078;12.878;2023-05-08T17:24:14;96862.41;;;15.81;39.97
44079;BME280;29744;49.078;12.878;2023-05-08T17:29:15;96870.53;;;15.81;40.26
44079;BME280;29744;49.078;12.878;2023-05-08T17:34:15;96874.34;;;15.80;40.31
44079;BME280;29744;49.078;12.878;2023-05-08T17:39:15;96880.56;;;15.81;39.85
44079;BME280;29744;49.078;12.878;2023-05-08T17:44:18;96879.75;;;15.80;40.29
44079;BME280;29744;49.078;12.878;2023-05-08T17:49:19;96884.38;;;15.80;40.13
44079;BME280;29744;49.078;12.878;2023-05-08T17:54:19;96893.56;;;15.78;40.13
44079;BME280;29744;49.078;12.878;2023-05-08T17:59:19;96893.88;;;15.77;40.25
44079;BME280;29744;49.078;12.878;2023-05-08T18:04:20;96895.47;;;15.78;40.12
44079;BME280;29744;49.078;12.878;2023-05-08T18:09:20;96906.63;;;15.76;39.99
44079;BME280;29744;49.078;12.878;2023-05-08T18:14:20;96904.72;;;15.77;40.46
44079;BME280;29744;49.078;12.878;2023-05-08T18:19:20;96903.13;;;15.76;40.15
44079;BME280;29744;49.078;12.878;2023-05-08T18:24:21;96911.22;;;15.76;39.95
44079;BME280;29744;49.078;12.878;2023-05-08T18:29:21;96925.88;;;15.75;40.49
44079;BME280;29744;49.078;12.878;2023-05-08T18:34:21;96929.69;;;15.74;40.28
44079;BME280;29744;49.078;12.878;2023-05-08T18:39:22;96934.31;;;15.73;39.87
44079;BME280;29744;49.078;12.878;2023-05-08T18:44:22;96944.31;;;15.73;40.29
44079;BME280;29744;49.078;12.878;2023-05-08T18:49:23;96938.13;;;15.72;40.21
44079;BME280;29744;49.078;12.878;2023-05-08T18:54:23;96950.84;;;15.72;40.03
44079;BME280;29744;49.078;12.878;2023-05-08T18:59:25;96952.75;;;15.71;40.34
44079;BME280;29744;49.078;12.878;2023-05-08T19:04:26;96956.88;;;15.69;40.51
44079;BME280;29744;49.078;12.878;2023-05-08T19:09:26;96961.19;;;15.70;40.24
44079;BME280;29744;49.078;12.878;2023-05-08T19:14:26;96959.59;;;15.69;40.25
44079;BME280;29744;49.078;12.878;2023-05-08T19:19:27;96960.69;;;15.68;40.16
44079;BME280;29744;49.078;12.878;2023-05-08T19:24:27;96959.59;;;15.69;40.51
44079;BME280;29744;49.078;12.878;2023-05-08T19:29:29;96966.09;;;15.68;40.42
44079;BME280;29744;49.078;12.878;2023-05-08T19:34:30;96976.59;;;15.69;40.51
44079;BME280;29744;49.078;12.878;2023-05-08T19:39:31;96966.09;;;15.68;40.67
44079;BME280;29744;49.078;12.878;2023-05-08T19:44:31;96977.25;;;15.66;40.45
44079;BME280;29744;49.078;12.878;2023-05-08T19:49:31;96977.25;;;15.66;40.14
44079;BME280;29744;49.078;12.878;2023-05-08T19:54:32;96981.84;;;15.66;40.19
44079;BME280;29744;49.078;12.878;2023-05-08T19:59:32;96973.75;;;15.66;40.60
44079;BME280;29744;49.078;12.878;2023-05-08T20:04:32;96972.16;;;15.65;40.66
44079;BME280;29744;49.078;12.878;2023-05-08T20:09:33;96974.06;;;15.64;40.17
44079;BME280;29744;49.078;12.878;2023-05-08T20:14:33;96979.47;;;15.64;40.31
44079;BME280;29744;49.078;12.878;2023-05-08T20:19:33;96986.00;;;15.63;40.73
44079;BME280;29744;49.078;12.878;2023-05-08T20:24:33;96977.88;;;15.63;40.52
44079;BME280;29744;49.078;12.878;2023-05-08T20:29:34;96985.19;;;15.63;40.28
44079;BME280;29744;49.078;12.878;2023-05-08T20:34:34;96979.78;;;15.63;40.73
44079;BME280;29744;49.078;12.878;2023-05-08T20:39:35;96975.50;;;15.62;40.37
44079;BME280;29744;49.078;12.878;2023-05-08T20:44:35;96979.00;;;15.62;40.52
44079;BME280;29744;49.078;12.878;2023-05-08T20:49:35;96970.88;;;15.62;40.60
44079;BME280;29744;49.078;12.878;2023-05-08T20:54:36;96968.97;;;15.63;40.59
44079;BME280;29744;49.078;12.878;2023-05-08T20:59:36;96963.88;;;15.61;40.19
44079;BME280;29744;49.078;12.878;2023-05-08T21:04:36;96955.78;;;15.61;40.49
44079;BME280;29744;49.078;12.878;2023-05-08T21:09:37;96965.78;;;15.61;40.82
44079;BME280;29744;49.078;12.878;2023-05-08T21:14:37;96963.09;;;15.61;40.52
44079;BME280;29744;49.078;12.878;2023-05-08T21:19:37;96957.19;;;15.59;40.24
44079;BME280;29744;49.078;12.878;2023-05-08T21:24:42;96958.78;;;15.60;40.58
44079;BME280;29744;49.078;12.878;2023-05-08T21:29:42;96961.50;;;15.60;40.76
44079;BME280;29744;49.078;12.878;2023-05-08T21:34:42;96954.50;;;15.59;40.74
44079;BME280;29744;49.078;12.878;2023-05-08T21:39:43;96949.88;;;15.59;40.18
44079;BME280;29744;49.078;12.878;2023-05-08T21:44:43;96942.88;;;15.58;40.27
44079;BME280;29744;49.078;12.878;2023-05-08T21:49:43;96941.31;;;15.57;40.57
44079;BME280;29744;49.078;12.878;2023-05-08T21:54:44;96942.09;;;15.58;40.76
44079;BME280;29744;49.078;12.878;2023-05-08T21:59:44;96931.59;;;15.56;40.50
44079;BME280;29744;49.078;12.878;2023-05-08T22:04:44;96928.91;;;15.56;40.60
44079;BME280;29744;49.078;12.878;2023-05-08T22:09:44;96930.81;;;15.56;40.39
44079;BME280;29744;49.078;12.878;2023-05-08T22:14:45;96933.50;;;15.56;40.23
44079;BME280;29744;49.078;12.878;2023-05-08T22:19:45;96923.00;;;15.54;40.61
44079;BME280;29744;49.078;12.878;2023-05-08T22:24:45;96928.41;;;15.54;40.67
44079;BME280;29744;49.078;12.878;2023-05-08T22:29:46;96931.91;;;15.55;40.21
44079;BME280;29744;49.078;12.878;2023-05-08T22:34:46;96922.22;;;15.54;40.67
44079;BME280;29744;49.078;12.878;2023-05-08T22:39:48;96923.00;;;15.54;40.29
44079;BME280;29744;49.078;12.878;2023-05-08T22:44:49;96916.81;;;15.54;40.25
44079;BME280;29744;49.078;12.878;2023-05-08T22:49:49;96909.81;;;15.53;40.44
44079;BME280;29744;49.078;12.878;2023-05-08T22:54:49;96911.41;;;15.54;40.32
44079;BME280;29744;49.078;12.878;2023-05-08T22:59:50;96906.31;;;15.52;40.06
44079;BME280;29744;49.078;12.878;2023-05-08T23:04:50;96901.69;;;15.53;40.70
44079;BME280;29744;49.078;12.878;2023-05-08T23:09:50;96896.28;;;15.53;40.67
44079;BME280;29744;49.078;12.878;2023-05-08T23:14:50;96901.69;;;15.53;40.45
44079;BME280;29744;49.078;12.878;2023-05-08T23:19:51;96901.69;;;15.53;40.45
44079;BME280;29744;49.078;12.878;2023-05-08T23:24:51;96897.41;;;15.52;40.67
44079;BME280;29744;49.078;12.878;2023-05-08T23:29:51;96897.41;;;15.52;40.69
44079;BME280;29744;49.078;12.878;2023-05-08T23:34:52;96894.72;;;15.52;40.41
44079;BME280;29744;49.078;12.878;2023-05-08T23:39:53;96883.91;;;15.52;40.37
44079;BME280;29744;49.078;12.878;2023-05-08T23:44:54;96883.09;;;15.51;40.21
44079;BME280;29744;49.078;12.878;2023-05-08T23:49:55;96888.50;;;15.51;40.74
44079;BME280;29744;49.078;12.878;2023-05-08T23:54:55;96883.09;;;15.51;40.46
44079;BME280;29744;49.078;12.878;2023-05-08T23:59:55;96890.41;;;15.51;40.24
